sensor_id;sensor_type;location;lat;lon;timestamp;pressure;altitude;pressure_sealevel;temperature;humidity
46638;BME280;32365;46.938;7.390;2023-06-22T06:20:47;95420.47;;;20.18;80.18
46638;BME280;32365;46.938;7.390;2023-06-22T06:23:13;95383.03;;;20.40;78.92
46638;BME280;32365;46.938;7.390;2023-06-22T06:25:41;95407.50;;;20.69;79.05
46638;BME280;32365;46.938;7.390;2023-06-22T06:28:07;95448.72;;;20.59;78.75
46638;BME280;32365;46.938;7.390;2023-06-22T06:30:34;95453.53;;;20.38;80.04
46638;BME280;32365;46.938;7.390;2023-06-22T06:33:02;95429.09;;;20.38;80.12
46638;BME280;32365;46.938;7.390;2023-06-22T06:35:29;95437.25;;;20.36;80.06
46638;BME280;32365;46.938;7.390;2023-06-22T06:37:57;95445.56;;;20.43;79.76
46638;BME280;32365;46.938;7.390;2023-06-22T06:40:24;95440.06;;;20.73;78.95
46638;BME280;32365;46.938;7.390;2023-06-22T06:42:50;95447.41;;;20.90;79.18
46638;BME280;32365;46.938;7.390;2023-06-22T06:45:18;95445.75;;;21.08;78.36
46638;BME280;32365;46.938;7.390;2023-06-22T06:47:46;95458.81;;;21.27;78.26
46638;BME280;32365;46.938;7.390;2023-06-22T06:50:12;95462.25;;;21.14;78.24
46638;BME280;32365;46.938;7.390;2023-06-22T06:52:39;95444.16;;;21.35;78.52
46638;BME280;32365;46.938;7.390;2023-06-22T06:55:08;95437.81;;;21.50;77.80
46638;BME280;32365;46.938;7.390;2023-06-22T06:57:37;95421.28;;;21.72;76.44
46638;BME280;32365;46.938;7.390;2023-06-22T07:00:04;95401.09;;;21.67;76.47
46638;BME280;32365;46.938;7.390;2023-06-22T07:02:35;95394.25;;;21.30;79.93
46638;BME280;32365;46.938;7.390;2023-06-22T07:05:02;95403.34;;;21.10;79.89
46638;BME280;32365;46.938;7.390;2023-06-22T07:07:29;95400.28;;;21.44;79.48
46638;BME280;32365;46.938;7.390;2023-06-22T07:09:55;95393.03;;;21.64;78.58
46638;BME280;32365;46.938;7.390;2023-06-22T07:12:23;95398.97;;;21.70;77.89
46638;BME280;32365;46.938;7.390;2023-06-22T07:14:51;95400.22;;;21.72;77.96
46638;BME280;32365;46.938;7.390;2023-06-22T07:17:18;95379.50;;;21.79;77.58
46638;BME280;32365;46.938;7.390;2023-06-22T07:19:44;95354.47;;;21.31;80.33
46638;BME280;32365;46.938;7.390;2023-06-22T07:22:10;95350.06;;;21.41;81.64
46638;BME280;32365;46.938;7.390;2023-06-22T07:24:37;95354.03;;;21.52;80.47
46638;BME280;32365;46.938;7.390;2023-06-22T07:27:04;95357.22;;;21.63;80.15
46638;BME280;32365;46.938;7.390;2023-06-22T07:29:33;95359.91;;;21.94;79.20
46638;BME280;32365;46.938;7.390;2023-06-22T07:32:00;95346.78;;;22.03;77.07
46638;BME280;32365;46.938;7.390;2023-06-22T07:34:29;95353.91;;;22.34;77.40
46638;BME280;32365;46.938;7.390;2023-06-22T07:36:56;95348.84;;;22.15;78.13
46638;BME280;32365;46.938;7.390;2023-06-22T07:39:22;95350.84;;;22.09;78.65
46638;BME280;32365;46.938;7.390;2023-06-22T07:41:51;95358.00;;;21.63;80.43
46638;BME280;32365;46.938;7.390;2023-06-22T07:44:18;95340.44;;;21.22;82.40
46638;BME280;32365;46.938;7.390;2023-06-22T07:46:46;95337.16;;;21.16;82.42
46638;BME280;32365;46.938;7.390;2023-06-22T07:49:12;95331.41;;;21.14;83.37
46638;BME280;32365;46.938;7.390;2023-06-22T07:51:38;95338.69;;;21.54;79.39
46638;BME280;32365;46.938;7.390;2023-06-22T07:54:05;95330.31;;;21.52;79.88
46638;BME280;32365;46.938;7.390;2023-06-22T07:56:32;95326.75;;;21.71;78.06
46638;BME280;32365;46.938;7.390;2023-06-22T07:58:58;95321.53;;;21.57;78.96
46638;BME280;32365;46.938;7.390;2023-06-22T08:01:27;95327.56;;;21.57;79.32
46638;BME280;32365;46.938;7.390;2023-06-22T08:03:54;95325.16;;;21.47;79.97
46638;BME280;32365;46.938;7.390;2023-06-22T08:06:21;95314.81;;;21.50;79.04
46638;BME280;32365;46.938;7.390;2023-06-22T08:08:47;95316.88;;;21.76;78.65
46638;BME280;32365;46.938;7.390;2023-06-22T08:11:14;95311.72;;;21.71;78.73
46638;BME280;32365;46.938;7.390;2023-06-22T08:13:40;95306.75;;;21.70;78.02
46638;BME280;32365;46.938;7.390;2023-06-22T08:16:07;95298.56;;;22.03;77.38
46638;BME280;32365;46.938;7.390;2023-06-22T08:18:33;95305.31;;;22.18;77.28
46638;BME280;32365;46.938;7.390;2023-06-22T08:21:01;95286.69;;;21.82;76.78
46638;BME280;32365;46.938;7.390;2023-06-22T08:23:28;95282.75;;;22.03;76.44
46638;BME280;32365;46.938;7.390;2023-06-22T08:25:54;95273.84;;;21.90;77.55
46638;BME280;32365;46.938;7.390;2023-06-22T08:28:20;95255.25;;;21.86;77.89
46638;BME280;32365;46.938;7.390;2023-06-22T08:30:47;95264.50;;;21.83;76.59
46638;BME280;32365;46.938;7.390;2023-06-22T08:33:14;95269.88;;;22.01;75.21
46638;BME280;32365;46.938;7.390;2023-06-22T08:35:40;95280.69;;;21.91;74.66
46638;BME280;32365;46.938;7.390;2023-06-22T08:38:08;95289.06;;;21.93;74.50
46638;BME280;32365;46.938;7.390;2023-06-22T08:40:34;95288.66;;;21.99;75.11
46638;BME280;32365;46.938;7.390;2023-06-22T08:43:01;95282.25;;;22.32;73.11
46638;BME280;32365;46.938;7.390;2023-06-22T08:45:27;95280.00;;;22.48;72.07
46638;BME280;32365;46.938;7.390;2023-06-22T08:47:54;95275.38;;;22.54;71.13
46638;BME280;32365;46.938;7.390;2023-06-22T08:50:20;95271.63;;;22.46;72.49
46638;BME280;32365;46.938;7.390;2023-06-22T08:52:47;95266.06;;;22.56;71.22
46638;BME280;32365;46.938;7.390;2023-06-22T08:55:14;95270.75;;;22.77;71.08
46638;BME280;32365;46.938;7.390;2023-06-22T08:57:41;95265.66;;;23.07;69.63
46638;BME280;32365;46.938;7.390;2023-06-22T09:00:09;95266.44;;;23.16;70.46
46638;BME280;32365;46.938;7.390;2023-06-22T09:02:41;95255.56;;;22.91;70.90
46638;BME280;32365;46.938;7.390;2023-06-22T09:05:09;95258.84;;;23.24;68.81
46638;BME280;32365;46.938;7.390;2023-06-22T09:07:35;95249.38;;;23.40;68.80
46638;BME280;32365;46.938;7.390;2023-06-22T09:10:02;95243.28;;;23.57;68.00
46638;BME280;32365;46.938;7.390;2023-06-22T09:12:31;95250.63;;;23.90;66.55
46638;BME280;32365;46.938;7.390;2023-06-22T09:14:58;95253.69;;;23.54;69.13
46638;BME280;32365;46.938;7.390;2023-06-22T09:17:25;95258.38;;;23.48;69.10
46638;BME280;32365;46.938;7.390;2023-06-22T09:19:52;95246.16;;;23.82;69.19
46638;BME280;32365;46.938;7.390;2023-06-22T09:22:18;95253.25;;;24.08;66.39
46638;BME280;32365;46.938;7.390;2023-06-22T09:24:45;95242.50;;;24.13;67.13
46638;BME280;32365;46.938;7.390;2023-06-22T09:27:11;95225.72;;;24.09;66.85
46638;BME280;32365;46.938;7.390;2023-06-22T09:29:39;95203.06;;;23.99;66.96
46638;BME280;32365;46.938;7.390;2023-06-22T09:32:06;95206.63;;;24.03;68.00
46638;BME280;32365;46.938;7.390;2023-06-22T09:34:33;95215.63;;;24.11;65.65
46638;BME280;32365;46.938;7.390;2023-06-22T09:36:59;95215.44;;;24.46;64.30
46638;BME280;32365;46.938;7.390;2023-06-22T09:39:26;95206.56;;;24.42;64.30
46638;BME280;32365;46.938;7.390;2023-06-22T09:41:53;95212.31;;;24.44;64.00
46638;BME280;32365;46.938;7.390;2023-06-22T09:44:19;95206.94;;;24.32;65.53
46638;BME280;32365;46.938;7.390;2023-06-22T09:46:47;95226.19;;;24.41;65.89
46638;BME280;32365;46.938;7.390;2023-06-22T09:49:13;95228.00;;;24.49;65.92
46638;BME280;32365;46.938;7.390;2023-06-22T09:51:40;95222.81;;;24.32;65.93
46638;BME280;32365;46.938;7.390;2023-06-22T09:54:06;95225.41;;;24.40;65.86
46638;BME280;32365;46.938;7.390;2023-06-22T09:56:33;95238.88;;;24.18;67.45
46638;BME280;32365;46.938;7.390;2023-06-22T09:58:59;95242.22;;;24.36;67.69
46638;BME280;32365;46.938;7.390;2023-06-22T10:01:25;95243.38;;;24.26;68.18
46638;BME280;32365;46.938;7.390;2023-06-22T10:03:53;95245.47;;;24.11;68.32
46638;BME280;32365;46.938;7.390;2023-06-22T10:06:21;95245.03;;;24.01;68.79
46638;BME280;32365;46.938;7.390;2023-06-22T10:08:48;95245.88;;;23.75;69.73
46638;BME280;32365;46.938;7.390;2023-06-22T10:11:16;95243.28;;;23.57;70.63
46638;BME280;32365;46.938;7.390;2023-06-22T10:13:42;95258.44;;;23.95;69.08
46638;BME280;32365;46.938;7.390;2023-06-22T10:16:09;95257.22;;;23.75;68.59
46638;BME280;32365;46.938;7.390;2023-06-22T10:18:36;95247.00;;;23.65;69.34
46638;BME280;32365;46.938;7.390;2023-06-22T10:21:04;95262.84;;;23.74;69.49
46638;BME280;32365;46.938;7.390;2023-06-22T10:23:30;95262.50;;;23.66;69.97
46638;BME280;32365;46.938;7.390;2023-06-22T10:25:56;95305.59;;;23.58;70.30
46638;BME280;32365;46.938;7.390;2023-06-22T10:28:23;95323.00;;;23.42;70.54
46638;BME280;32365;46.938;7.390;2023-06-22T10:30:49;95317.25;;;23.48;70.99
46638;BME280;32365;46.938;7.390;2023-06-22T10:33:16;95298.75;;;23.75;71.58
46638;BME280;32365;46.938;7.390;2023-06-22T10:35:42;95308.66;;;23.87;69.69
46638;BME280;32365;46.938;7.390;2023-06-22T10:38:10;95335.38;;;24.03;70.25
46638;BME280;32365;46.938;7.390;2023-06-22T10:40:37;95308.84;;;23.81;71.10
46638;BME280;32365;46.938;7.390;2023-06-22T10:43:04;95313.97;;;24.73;68.60
46638;BME280;32365;46.938;7.390;2023-06-22T10:45:31;95310.94;;;25.13;68.11
46638;BME280;32365;46.938;7.390;2023-06-22T10:47:57;95326.34;;;25.75;64.01
46638;BME280;32365;46.938;7.390;2023-06-22T10:50:24;95333.19;;;25.76;62.86
46638;BME280;32365;46.938;7.390;2023-06-22T10:52:51;95347.97;;;26.44;62.70
46638;BME280;32365;46.938;7.390;2023-06-22T10:55:18;95360.44;;;27.30;59.47
46638;BME280;32365;46.938;7.390;2023-06-22T10:57:45;95359.34;;;27.72;57.49
46638;BME280;32365;46.938;7.390;2023-06-22T11:00:13;95355.69;;;27.93;55.27
46638;BME280;32365;46.938;7.390;2023-06-22T11:02:40;95361.59;;;26.80;57.46
46638;BME280;32365;46.938;7.390;2023-06-22T11:05:07;95364.88;;;26.27;58.79
46638;BME280;32365;46.938;7.390;2023-06-22T11:07:34;95361.78;;;25.70;61.01
46638;BME280;32365;46.938;7.390;2023-06-22T11:10:00;95364.59;;;25.86;61.31
46638;BME280;32365;46.938;7.390;2023-06-22T11:12:28;95369.06;;;25.94;60.92
46638;BME280;32365;46.938;7.390;2023-06-22T11:14:54;95360.97;;;26.24;59.81
46638;BME280;32365;46.938;7.390;2023-06-22T11:17:22;95363.53;;;26.00;60.94
46638;BME280;32365;46.938;7.390;2023-06-22T11:19:49;95352.69;;;25.38;64.57
46638;BME280;32365;46.938;7.390;2023-06-22T11:22:15;95342.16;;;25.50;65.17
46638;BME280;32365;46.938;7.390;2023-06-22T11:24:41;95342.97;;;25.84;63.11
46638;BME280;32365;46.938;7.390;2023-06-22T11:27:08;95348.84;;;25.90;63.92
46638;BME280;32365;46.938;7.390;2023-06-22T11:29:36;95351.94;;;26.50;61.31
46638;BME280;32365;46.938;7.390;2023-06-22T11:32:05;95359.69;;;26.43;61.20
46638;BME280;32365;46.938;7.390;2023-06-22T11:34:32;95343.34;;;26.07;61.42
46638;BME280;32365;46.938;7.390;2023-06-22T11:36:59;95345.59;;;26.18;61.30
46638;BME280;32365;46.938;7.390;2023-06-22T11:39:25;95343.53;;;26.36;61.50
46638;BME280;32365;46.938;7.390;2023-06-22T11:41:52;95353.31;;;25.77;61.91
46638;BME280;32365;46.938;7.390;2023-06-22T11:44:18;95345.41;;;25.68;61.76
46638;BME280;32365;46.938;7.390;2023-06-22T11:46:46;95329.78;;;25.12;63.24
46638;BME280;32365;46.938;7.390;2023-06-22T11:49:13;95323.66;;;24.69;65.12
46638;BME280;32365;46.938;7.390;2023-06-22T11:51:40;95315.44;;;24.92;65.34
46638;BME280;32365;46.938;7.390;2023-06-22T11:54:06;95318.84;;;25.43;63.11
46638;BME280;32365;46.938;7.390;2023-06-22T11:56:33;95314.84;;;25.71;61.12
46638;BME280;32365;46.938;7.390;2023-06-22T11:58:59;95333.81;;;26.06;59.49
46638;BME280;32365;46.938;7.390;2023-06-22T12:01:26;95326.63;;;26.28;57.63
46638;BME280;32365;46.938;7.390;2023-06-22T12:03:53;95329.84;;;26.46;58.28
46638;BME280;32365;46.938;7.390;2023-06-22T12:06:20;95329.59;;;26.51;56.95
46638;BME280;32365;46.938;7.390;2023-06-22T12:08:46;95321.00;;;26.54;56.10
46638;BME280;32365;46.938;7.390;2023-06-22T12:11:13;95322.97;;;26.20;56.57
46638;BME280;32365;46.938;7.390;2023-06-22T12:13:39;95318.66;;;26.53;58.01
46638;BME280;32365;46.938;7.390;2023-06-22T12:16:05;95312.91;;;26.38;58.77
46638;BME280;32365;46.938;7.390;2023-06-22T12:18:32;95313.44;;;26.19;58.56
46638;BME280;32365;46.938;7.390;2023-06-22T12:21:00;95299.38;;;26.19;57.36
46638;BME280;32365;46.938;7.390;2023-06-22T12:23:26;95296.75;;;26.19;57.24
46638;BME280;32365;46.938;7.390;2023-06-22T12:25:53;95299.00;;;25.95;57.86
46638;BME280;32365;46.938;7.390;2023-06-22T12:28:19;95294.84;;;25.73;56.72
46638;BME280;32365;46.938;7.390;2023-06-22T12:30:46;95291.22;;;25.44;56.95
46638;BME280;32365;46.938;7.390;2023-06-22T12:33:12;95294.34;;;25.25;58.14
46638;BME280;32365;46.938;7.390;2023-06-22T12:35:39;95302.66;;;25.15;57.06
46638;BME280;32365;46.938;7.390;2023-06-22T12:38:06;95312.16;;;24.95;58.34
46638;BME280;32365;46.938;7.390;2023-06-22T12:40:34;95334.72;;;24.92;58.22
46638;BME280;32365;46.938;7.390;2023-06-22T12:43:00;95344.47;;;24.79;58.59
46638;BME280;32365;46.938;7.390;2023-06-22T12:45:27;95351.34;;;24.71;57.34
46638;BME280;32365;46.938;7.390;2023-06-22T12:47:56;95361.81;;;24.59;57.11
46638;BME280;32365;46.938;7.390;2023-06-22T12:50:23;95374.31;;;24.50;56.71
46638;BME280;32365;46.938;7.390;2023-06-22T12:52:49;95375.44;;;24.40;55.19
46638;BME280;32365;46.938;7.390;2023-06-22T12:55:17;95378.88;;;24.32;54.91
46638;BME280;32365;46.938;7.390;2023-06-22T12:57:44;95358.69;;;24.18;56.13
46638;BME280;32365;46.938;7.390;2023-06-22T13:00:11;95336.47;;;24.02;54.03
46638;BME280;32365;46.938;7.390;2023-06-22T13:02:38;95338.97;;;23.89;54.78
46638;BME280;32365;46.938;7.390;2023-06-22T13:05:05;95308.50;;;23.83;53.54
46638;BME280;32365;46.938;7.390;2023-06-22T13:07:31;95319.72;;;23.71;55.04
46638;BME280;32365;46.938;7.390;2023-06-22T13:09:58;95308.38;;;23.62;56.49
46638;BME280;32365;46.938;7.390;2023-06-22T13:12:25;95312.16;;;23.43;58.79
46638;BME280;32365;46.938;7.390;2023-06-22T13:14:52;95320.69;;;23.31;59.40
46638;BME280;32365;46.938;7.390;2023-06-22T13:17:18;95313.84;;;23.48;60.36
46638;BME280;32365;46.938;7.390;2023-06-22T13:19:45;95316.03;;;23.55;59.39
46638;BME280;32365;46.938;7.390;2023-06-22T13:22:26;95312.59;;;23.54;58.70
46638;BME280;32365;46.938;7.390;2023-06-22T13:24:54;95312.00;;;23.31;59.79
46638;BME280;32365;46.938;7.390;2023-06-22T13:27:20;95314.00;;;23.25;60.80
46638;BME280;32365;46.938;7.390;2023-06-22T13:29:48;95309.97;;;23.28;58.10
46638;BME280;32365;46.938;7.390;2023-06-22T13:32:15;95303.38;;;23.08;62.91
46638;BME280;32365;46.938;7.390;2023-06-22T13:34:41;95245.25;;;22.06;69.31
46638;BME280;32365;46.938;7.390;2023-06-22T13:37:08;95265.41;;;21.70;70.81
46638;BME280;32365;46.938;7.390;2023-06-22T13:39:35;95254.75;;;21.84;71.87
46638;BME280;32365;46.938;7.390;2023-06-22T13:42:01;95316.56;;;22.01;74.52
46638;BME280;32365;46.938;7.390;2023-06-22T13:44:28;95343.03;;;22.27;71.66
46638;BME280;32365;46.938;7.390;2023-06-22T13:46:55;95354.28;;;22.10;72.95
46638;BME280;32365;46.938;7.390;2023-06-22T13:49:22;95334.16;;;21.91;69.56
46638;BME280;32365;46.938;7.390;2023-06-22T13:51:48;95308.53;;;21.83;70.09
46638;BME280;32365;46.938;7.390;2023-06-22T13:54:16;95251.00;;;21.53;75.33
46638;BME280;32365;46.938;7.390;2023-06-22T13:56:43;95269.09;;;21.46;74.39
46638;BME280;32365;46.938;7.390;2023-06-22T13:59:09;95288.28;;;21.92;75.87
46638;BME280;32365;46.938;7.390;2023-06-22T14:01:36;95292.31;;;21.90;77.09
46638;BME280;32365;46.938;7.390;2023-06-22T14:04:05;95268.47;;;21.95;77.15
46638;BME280;32365;46.938;7.390;2023-06-22T14:06:31;95268.09;;;21.88;76.25
46638;BME280;32365;46.938;7.390;2023-06-22T14:08:58;95261.63;;;21.94;76.28
46638;BME280;32365;46.938;7.390;2023-06-22T14:11:24;95285.44;;;22.11;76.36
46638;BME280;32365;46.938;7.390;2023-06-22T14:13:51;95287.28;;;22.11;76.08
46638;BME280;32365;46.938;7.390;2023-06-22T14:16:17;95289.66;;;22.21;74.58
46638;BME280;32365;46.938;7.390;2023-06-22T14:18:44;95325.72;;;22.03;74.84
46638;BME280;32365;46.938;7.390;2023-06-22T14:21:12;95318.31;;;21.60;76.94
46638;BME280;32365;46.938;7.390;2023-06-22T14:23:39;95327.28;;;21.59;77.07
46638;BME280;32365;46.938;7.390;2023-06-22T14:26:05;95333.34;;;21.59;76.43
46638;BME280;32365;46.938;7.390;2023-06-22T14:28:32;95253.38;;;20.96;78.67
46638;BME280;32365;46.938;7.390;2023-06-22T14:30:58;95225.84;;;20.51;81.59
46638;BME280;32365;46.938;7.390;2023-06-22T14:33:24;95309.81;;;20.89;78.71
46638;BME280;32365;46.938;7.390;2023-06-22T14:35:51;95316.13;;;20.88;78.52
46638;BME280;32365;46.938;7.390;2023-06-22T14:38:18;95337.94;;;21.03;76.72
46638;BME280;32365;46.938;7.390;2023-06-22T14:40:46;95221.16;;;20.62;80.84
46638;BME280;32365;46.938;7.390;2023-06-22T14:43:12;95209.63;;;20.21;82.63
46638;BME280;32365;46.938;7.390;2023-06-22T14:45:39;95254.59;;;20.61;82.35
46638;BME280;32365;46.938;7.390;2023-06-22T14:48:06;95256.44;;;20.61;82.70
46638;BME280;32365;46.938;7.390;2023-06-22T14:50:33;95271.72;;;20.73;81.98
46638;BME280;32365;46.938;7.390;2023-06-22T14:52:59;95274.84;;;20.75;84.29
46638;BME280;32365;46.938;7.390;2023-06-22T14:55:27;95277.38;;;20.80;82.50
46638;BME280;32365;46.938;7.390;2023-06-22T14:57:53;95286.44;;;20.74;82.97
46638;BME280;32365;46.938;7.390;2023-06-22T15:00:20;95269.88;;;20.45;86.24
46638;BME280;32365;46.938;7.390;2023-06-22T15:02:47;95204.19;;;20.04;87.29
46638;BME280;32365;46.938;7.390;2023-06-22T15:05:14;95193.28;;;20.10;89.00
46638;BME280;32365;46.938;7.390;2023-06-22T15:07:40;95183.31;;;20.35;86.89
46638;BME280;32365;46.938;7.390;2023-06-22T15:10:08;95193.56;;;20.87;86.88
46638;BME280;32365;46.938;7.390;2023-06-22T15:12:36;95214.69;;;21.64;82.01
46638;BME280;32365;46.938;7.390;2023-06-22T15:15:03;95201.88;;;22.29;77.66
46638;BME280;32365;46.938;7.390;2023-06-22T15:17:29;95198.59;;;22.73;75.96
46638;BME280;32365;46.938;7.390;2023-06-22T15:19:57;95185.22;;;22.96;72.86
46638;BME280;32365;46.938;7.390;2023-06-22T15:22:24;95175.22;;;22.22;76.39
46638;BME280;32365;46.938;7.390;2023-06-22T15:24:50;95172.53;;;21.64;79.81
46638;BME280;32365;46.938;7.390;2023-06-22T15:27:18;95180.63;;;21.68;79.79
46638;BME280;32365;46.938;7.390;2023-06-22T15:29:46;95180.28;;;21.70;80.31
46638;BME280;32365;46.938;7.390;2023-06-22T15:32:12;95196.00;;;21.29;83.28
46638;BME280;32365;46.938;7.390;2023-06-22T15:34:39;95187.63;;;21.50;83.29
46638;BME280;32365;46.938;7.390;2023-06-22T15:37:05;95177.84;;;21.50;79.94
46638;BME280;32365;46.938;7.390;2023-06-22T15:39:32;95178.53;;;21.33;80.34
46638;BME280;32365;46.938;7.390;2023-06-22T15:41:58;95167.44;;;21.14;81.89
46638;BME280;32365;46.938;7.390;2023-06-22T15:44:25;95167.63;;;20.95;81.67
46638;BME280;32365;46.938;7.390;2023-06-22T15:46:52;95154.72;;;20.84;80.14
46638;BME280;32365;46.938;7.390;2023-06-22T15:49:19;95139.66;;;20.99;80.16
46638;BME280;32365;46.938;7.390;2023-06-22T15:51:45;95149.25;;;21.26;79.36
46638;BME280;32365;46.938;7.390;2023-06-22T15:54:12;95179.38;;;21.20;78.31
46638;BME280;32365;46.938;7.390;2023-06-22T15:56:38;95179.94;;;21.08;76.51
46638;BME280;32365;46.938;7.390;2023-06-22T15:59:05;95169.41;;;21.08;78.90
46638;BME280;32365;46.938;7.390;2023-06-22T16:01:32;95169.66;;;21.20;77.48
46638;BME280;32365;46.938;7.390;2023-06-22T16:03:59;95174.91;;;21.20;79.15
46638;BME280;32365;46.938;7.390;2023-06-22T16:06:27;95200.50;;;21.29;75.67
46638;BME280;32365;46.938;7.390;2023-06-22T16:08:53;95220.06;;;21.36;75.20
46638;BME280;32365;46.938;7.390;2023-06-22T16:11:20;95250.94;;;21.22;74.05
46638;BME280;32365;46.938;7.390;2023-06-22T16:13:46;95284.03;;;21.37;76.40
46638;BME280;32365;46.938;7.390;2023-06-22T16:16:13;95313.16;;;21.18;75.11
46638;BME280;32365;46.938;7.390;2023-06-22T16:18:41;95340.19;;;21.10;77.37
46638;BME280;32365;46.938;7.390;2023-06-22T16:21:09;95401.91;;;20.89;77.28
46638;BME280;32365;46.938;7.390;2023-06-22T16:23:35;95442.91;;;20.90;76.20
46638;BME280;32365;46.938;7.390;2023-06-22T16:26:02;95483.34;;;20.48;70.12
46638;BME280;32365;46.938;7.390;2023-06-22T16:28:28;95490.03;;;20.07;68.18
46638;BME280;32365;46.938;7.390;2023-06-22T16:30:55;95532.84;;;19.64;69.89
46638;BME280;32365;46.938;7.390;2023-06-22T16:33:21;95521.25;;;19.46;70.07
46638;BME280;32365;46.938;7.390;2023-06-22T16:35:48;95539.53;;;19.32;71.17
46638;BME280;32365;46.938;7.390;2023-06-22T16:38:15;95557.59;;;19.09;72.60
46638;BME280;32365;46.938;7.390;2023-06-22T16:40:42;95563.28;;;18.87;73.12
46638;BME280;32365;46.938;7.390;2023-06-22T16:43:08;95570.09;;;18.53;76.93
46638;BME280;32365;46.938;7.390;2023-06-22T16:45:35;95581.97;;;18.40;79.25
46638;BME280;32365;46.938;7.390;2023-06-22T16:48:01;95590.88;;;17.84;83.24
46638;BME280;32365;46.938;7.390;2023-06-22T16:50:28;95598.13;;;17.37;86.23
46638;BME280;32365;46.938;7.390;2023-06-22T16:52:54;95592.94;;;17.01;90.05
46638;BME280;32365;46.938;7.390;2023-06-22T16:55:23;95591.84;;;16.81;93.04
46638;BME280;32365;46.938;7.390;2023-06-22T16:57:51;95588.47;;;16.75;95.16
46638;BME280;32365;46.938;7.390;2023-06-22T17:00:18;95580.34;;;16.56;97.29
46638;BME280;32365;46.938;7.390;2023-06-22T17:02:47;95563.59;;;16.42;96.33
46638;BME280;32365;46.938;7.390;2023-06-22T17:05:14;95580.84;;;16.33;98.40
46638;BME280;32365;46.938;7.390;2023-06-22T17:07:46;95575.09;;;16.25;100.00
46638;BME280;32365;46.938;7.390;2023-06-22T17:10:14;95576.66;;;16.16;100.00
46638;BME280;32365;46.938;7.390;2023-06-22T17:12:43;95556.75;;;16.10;100.00
46638;BME280;32365;46.938;7.390;2023-06-22T17:15:10;95539.00;;;16.07;100.00
46638;BME280;32365;46.938;7.390;2023-06-22T17:17:38;95535.88;;;16.10;100.00
46638;BME280;32365;46.938;7.390;2023-06-22T17:20:05;95534.56;;;16.07;100.00
46638;BME280;32365;46.938;7.390;2023-06-22T17:22:32;95537.44;;;16.06;100.00
46638;BME280;32365;46.938;7.390;2023-06-22T17:25:01;95529.09;;;16.09;100.00
46638;BME280;32365;46.938;7.390;2023-06-22T17:27:29;95522.81;;;16.10;100.00
46638;BME280;32365;46.938;7.390;2023-06-22T17:30:06;95518.38;;;16.05;99.80
46638;BME280;32365;46.938;7.390;2023-06-22T17:32:33;95515.50;;;16.07;100.00
46638;BME280;32365;46.938;7.390;2023-06-22T17:34:59;95508.97;;;15.99;99.36
46638;BME280;32365;46.938;7.390;2023-06-22T17:37:26;95507.13;;;15.94;99.24
46638;BME280;32365;46.938;7.390;2023-06-22T17:39:53;95507.91;;;15.95;99.54
46638;BME280;32365;46.938;7.390;2023-06-22T17:42:21;95503.75;;;15.99;99.87
46638;BME280;32365;46.938;7.390;2023-06-22T17:44:48;95492.50;;;15.98;99.69
46638;BME280;32365;46.938;7.390;2023-06-22T17:47:22;95489.09;;;15.93;100.00
46638;BME280;32365;46.938;7.390;2023-06-22T17:49:49;95499.03;;;15.91;100.00
46638;BME280;32365;46.938;7.390;2023-06-22T17:52:16;95485.19;;;15.90;100.00
46638;BME280;32365;46.938;7.390;2023-06-22T17:54:43;95496.63;;;15.84;100.00
46638;BME280;32365;46.938;7.390;2023-06-22T17:57:16;95495.63;;;15.85;100.00
46638;BME280;32365;46.938;7.390;2023-06-22T17:59:47;95507.91;;;16.00;100.00
46638;BME280;32365;46.938;7.390;2023-06-22T18:02:16;95519.41;;;15.99;100.00
46638;BME280;32365;46.938;7.390;2023-06-22T18:04:44;95520.50;;;16.19;100.00
46638;BME280;32365;46.938;7.390;2023-06-22T18:07:11;95527.81;;;16.22;100.00
46638;BME280;32365;46.938;7.390;2023-06-22T18:09:39;95538.53;;;16.25;100.00
46638;BME280;32365;46.938;7.390;2023-06-22T18:12:09;95548.72;;;16.22;100.00
46638;BME280;32365;46.938;7.390;2023-06-22T18:14:37;95541.66;;;16.22;100.00
46638;BME280;32365;46.938;7.390;2023-06-22T18:17:04;95558.34;;;16.21;100.00
46638;BME280;32365;46.938;7.390;2023-06-22T18:19:32;95559.16;;;16.27;100.00
46638;BME280;32365;46.938;7.390;2023-06-22T18:21:59;95558.88;;;16.23;100.00
46638;BME280;32365;46.938;7.390;2023-06-22T18:24:26;95552.88;;;16.23;100.00
46638;BME280;32365;46.938;7.390;2023-06-22T18:26:55;95558.88;;;16.18;100.00
46638;BME280;32365;46.938;7.390;2023-06-22T18:29:22;95558.88;;;16.18;100.00
46638;BME280;32365;46.938;7.390;2023-06-22T18:31:50;95564.09;;;16.18;100.00
46638;BME280;32365;46.938;7.390;2023-06-22T18:34:17;95551.56;;;16.20;100.00
46638;BME280;32365;46.938;7.390;2023-06-22T18:36:48;95566.19;;;16.21;100.00
46638;BME280;32365;46.938;7.390;2023-06-22T18:39:16;95558.59;;;16.09;100.00
46638;BME280;32365;46.938;7.390;2023-06-22T18:41:49;95564.63;;;16.15;100.00
46638;BME280;32365;46.938;7.390;2023-06-22T18:44:19;95565.41;;;16.15;100.00
46638;BME280;32365;46.938;7.390;2023-06-22T18:46:50;95574.81;;;16.11;100.00
46638;BME280;32365;46.938;7.390;2023-06-22T18:49:22;95581.34;;;16.19;100.00
46638;BME280;32365;46.938;7.390;2023-06-22T18:51:54;95577.66;;;16.05;100.00
46638;BME280;32365;46.938;7.390;2023-06-22T18:54:23;95570.84;;;15.98;100.00
46638;BME280;32365;46.938;7.390;2023-06-22T18:56:54;95567.47;;;16.03;100.00
46638;BME280;32365;46.938;7.390;2023-06-22T18:59:41;95578.16;;;16.02;100.00
46638;BME280;32365;46.938;7.390;2023-06-22T19:02:08;95570.34;;;16.02;100.00
46638;BME280;32365;46.938;7.390;2023-06-22T19:04:36;95571.38;;;16.06;100.00
46638;BME280;32365;46.938;7.390;2023-06-22T19:07:05;95565.34;;;16.00;100.00
46638;BME280;32365;46.938;7.390;2023-06-22T19:09:32;95577.06;;;15.87;100.00
46638;BME280;32365;46.938;7.390;2023-06-22T19:12:18;95581.53;;;15.92;100.00
46638;BME280;32365;46.938;7.390;2023-06-22T19:14:59;95581.78;;;15.95;100.00
46638;BME280;32365;46.938;7.390;2023-06-22T19:17:25;95583.63;;;16.00;100.00